N180GS EGLC-LFPN
Flight info
| Callsign | N180GS |
|---|---|
| Flight time | 1h 15m |
| Altitude | 6000 |
| Route | SOQQA 1H SODVU LZD ROU BAMES |
| Aircraft | BE36/L-VGD/C |
Departure
| Time | 2026-04-26 20:04 |
|---|---|
| Airport | London City Airport (EGLC) |
Arrival
| Time | 2026-04-26 21:20 |
|---|---|
| Airport | Toussus-le-Noble Airport (LFPN) |
| Time | Latitude | Longitude | Altitude | Speed | Heading |
|---|---|---|---|---|---|
| 2026-04-26 19:31 | 51.50520 | 0.04020 | 20 ft | 0 kts | 270° |
| 2026-04-26 20:00 | 51.50523 | 0.04012 | 20 ft | 4 kts | 335° |
| 2026-04-26 20:00 | 51.50523 | 0.04092 | 20 ft | 12 kts | 99° |
| 2026-04-26 20:00 | 51.50510 | 0.04206 | 20 ft | 13 kts | 109° |
| 2026-04-26 20:00 | 51.50502 | 0.04304 | 20 ft | 9 kts | 93° |
| 2026-04-26 20:01 | 51.50487 | 0.04441 | 20 ft | 12 kts | 100° |
| 2026-04-26 20:01 | 51.50493 | 0.04526 | 20 ft | 3 kts | 4° |
| 2026-04-26 20:01 | 51.50496 | 0.04526 | 20 ft | 0 kts | 1° |
| 2026-04-26 20:03 | 51.50545 | 0.04531 | 21 ft | 8 kts | 13° |
| 2026-04-26 20:03 | 51.50551 | 0.04681 | 21 ft | 30 kts | 93° |
| 2026-04-26 20:03 | 51.50532 | 0.05291 | 29 ft | 78 kts | 92° |
| 2026-04-26 20:03 | 51.50514 | 0.06265 | 202 ft | 93 kts | 92° |
| 2026-04-26 20:04 | 51.50503 | 0.06992 | 322 ft | 104 kts | 90° |
| 2026-04-26 20:04 | 51.50431 | 0.08652 | 590 ft | 120 kts | 93° |
| 2026-04-26 20:04 | 51.50421 | 0.10053 | 790 ft | 130 kts | 83° |
| 2026-04-26 20:04 | 51.50561 | 0.11030 | 932 ft | 136 kts | 72° |
| 2026-04-26 20:05 | 51.51003 | 0.12414 | 1130 ft | 143 kts | 56° |
| 2026-04-26 20:05 | 51.51708 | 0.13544 | 1320 ft | 148 kts | 38° |
| 2026-04-26 20:05 | 51.52626 | 0.14315 | 1508 ft | 150 kts | 26° |
| 2026-04-26 20:05 | 51.53580 | 0.15013 | 1691 ft | 151 kts | 27° |
| 2026-04-26 20:06 | 51.54531 | 0.15719 | 1876 ft | 151 kts | 27° |
| 2026-04-26 20:06 | 51.55313 | 0.16796 | 2057 ft | 149 kts | 56° |
| 2026-04-26 20:06 | 51.55674 | 0.18353 | 2232 ft | 151 kts | 79° |
| 2026-04-26 20:06 | 51.55842 | 0.20020 | 2413 ft | 151 kts | 78° |
| 2026-04-26 20:07 | 51.56020 | 0.21676 | 2590 ft | 150 kts | 78° |
| 2026-04-26 20:07 | 51.56196 | 0.23324 | 2768 ft | 150 kts | 78° |
| 2026-04-26 20:07 | 51.56454 | 0.24910 | 2940 ft | 148 kts | 62° |
| 2026-04-26 20:07 | 51.56923 | 0.26426 | 2991 ft | 156 kts | 63° |
| 2026-04-26 20:08 | 51.57398 | 0.28041 | 2994 ft | 163 kts | 63° |
| 2026-04-26 20:08 | 51.57888 | 0.29706 | 2998 ft | 166 kts | 64° |
| 2026-04-26 20:08 | 51.58385 | 0.31393 | 3002 ft | 168 kts | 64° |
| 2026-04-26 20:08 | 51.58888 | 0.33098 | 3000 ft | 169 kts | 64° |
| 2026-04-26 20:09 | 51.59393 | 0.34812 | 2998 ft | 170 kts | 64° |
| 2026-04-26 20:09 | 51.59901 | 0.36537 | 3000 ft | 170 kts | 64° |
| 2026-04-26 20:09 | 51.60400 | 0.38261 | 3059 ft | 166 kts | 67° |
| 2026-04-26 20:09 | 51.60562 | 0.40027 | 3306 ft | 157 kts | 93° |
| 2026-04-26 20:10 | 51.60396 | 0.41728 | 3555 ft | 151 kts | 97° |
| 2026-04-26 20:10 | 51.60235 | 0.43373 | 3801 ft | 147 kts | 98° |
| 2026-04-26 20:10 | 51.60074 | 0.44992 | 3988 ft | 149 kts | 97° |
| 2026-04-26 20:10 | 51.59903 | 0.46695 | 3991 ft | 159 kts | 97° |
| 2026-04-26 20:11 | 51.59722 | 0.48479 | 4003 ft | 164 kts | 97° |
| 2026-04-26 20:11 | 51.59330 | 0.50172 | 4001 ft | 170 kts | 128° |
| 2026-04-26 20:11 | 51.58297 | 0.51094 | 4006 ft | 176 kts | 164° |
| 2026-04-26 20:12 | 51.56000 | 0.52366 | 4124 ft | 169 kts | 153° |
| 2026-04-26 20:12 | 51.54959 | 0.53095 | 4370 ft | 159 kts | 153° |
| 2026-04-26 20:12 | 51.53968 | 0.53792 | 4619 ft | 153 kts | 153° |
| 2026-04-26 20:12 | 51.53007 | 0.54464 | 4876 ft | 148 kts | 154° |
| 2026-04-26 20:13 | 51.52071 | 0.55121 | 5118 ft | 145 kts | 155° |
| 2026-04-26 20:13 | 51.51151 | 0.55766 | 5361 ft | 143 kts | 155° |
| 2026-04-26 20:13 | 51.50246 | 0.56399 | 5606 ft | 141 kts | 155° |
| 2026-04-26 20:13 | 51.49353 | 0.57022 | 5853 ft | 139 kts | 155° |
| 2026-04-26 20:14 | 51.48468 | 0.57642 | 5992 ft | 146 kts | 156° |
| 2026-04-26 20:14 | 51.47496 | 0.58318 | 6004 ft | 157 kts | 156° |
| 2026-04-26 20:14 | 51.46469 | 0.59035 | 6006 ft | 164 kts | 156° |
| 2026-04-26 20:14 | 51.45398 | 0.59782 | 6005 ft | 171 kts | 156° |
| 2026-04-26 20:15 | 51.44295 | 0.60552 | 6007 ft | 174 kts | 156° |
| 2026-04-26 20:15 | 51.43178 | 0.61331 | 6004 ft | 176 kts | 156° |
| 2026-04-26 20:15 | 51.42051 | 0.62116 | 6001 ft | 177 kts | 156° |
| 2026-04-26 20:15 | 51.40915 | 0.62908 | 6005 ft | 179 kts | 156° |
| 2026-04-26 20:16 | 51.39777 | 0.63700 | 6005 ft | 178 kts | 156° |
| 2026-04-26 20:16 | 51.38636 | 0.64495 | 5999 ft | 179 kts | 156° |
| 2026-04-26 20:16 | 51.37488 | 0.65292 | 6007 ft | 180 kts | 156° |
| 2026-04-26 20:16 | 51.36340 | 0.66089 | 6001 ft | 180 kts | 156° |
| 2026-04-26 20:17 | 51.35194 | 0.66886 | 5996 ft | 180 kts | 156° |
| 2026-04-26 20:17 | 51.34044 | 0.67685 | 6001 ft | 180 kts | 156° |
| 2026-04-26 20:17 | 51.32895 | 0.68481 | 5993 ft | 180 kts | 156° |
| 2026-04-26 20:17 | 51.32136 | 0.69008 | 5952 ft | 180 kts | 156° |
| 2026-04-26 20:18 | 51.30599 | 0.70073 | 5954 ft | 180 kts | 156° |
| 2026-04-26 20:18 | 51.29452 | 0.70867 | 5950 ft | 180 kts | 156° |
| 2026-04-26 20:18 | 51.28319 | 0.71652 | 5951 ft | 180 kts | 156° |
| 2026-04-26 20:18 | 51.27171 | 0.72446 | 5949 ft | 180 kts | 156° |
| 2026-04-26 20:19 | 51.26022 | 0.73240 | 5952 ft | 180 kts | 156° |
| 2026-04-26 20:19 | 51.24876 | 0.74033 | 5947 ft | 180 kts | 156° |
| 2026-04-26 20:19 | 51.23728 | 0.74825 | 5949 ft | 180 kts | 156° |
| 2026-04-26 20:19 | 51.22578 | 0.75619 | 5952 ft | 180 kts | 156° |
| 2026-04-26 20:20 | 51.21430 | 0.76412 | 5955 ft | 180 kts | 156° |
| 2026-04-26 20:20 | 51.20281 | 0.77204 | 5959 ft | 180 kts | 156° |
| 2026-04-26 20:20 | 51.19133 | 0.77995 | 5956 ft | 180 kts | 156° |
| 2026-04-26 20:20 | 51.17981 | 0.78789 | 5959 ft | 180 kts | 156° |
| 2026-04-26 20:21 | 51.16827 | 0.79583 | 5960 ft | 180 kts | 156° |
| 2026-04-26 20:21 | 51.15676 | 0.80375 | 5956 ft | 180 kts | 156° |
| 2026-04-26 20:21 | 51.14541 | 0.81156 | 5960 ft | 180 kts | 156° |
| 2026-04-26 20:21 | 51.13391 | 0.81946 | 5960 ft | 180 kts | 156° |
| 2026-04-26 20:22 | 51.12244 | 0.82734 | 5973 ft | 180 kts | 156° |
| 2026-04-26 20:22 | 51.11094 | 0.83524 | 5967 ft | 180 kts | 156° |
| 2026-04-26 20:22 | 51.09944 | 0.84313 | 5976 ft | 180 kts | 156° |
| 2026-04-26 20:22 | 51.08796 | 0.85100 | 5974 ft | 180 kts | 156° |
| 2026-04-26 20:23 | 51.07647 | 0.85888 | 5974 ft | 180 kts | 156° |
| 2026-04-26 20:23 | 51.06498 | 0.86675 | 5979 ft | 180 kts | 156° |
| 2026-04-26 20:23 | 51.05350 | 0.87461 | 5977 ft | 180 kts | 156° |
| 2026-04-26 20:23 | 51.04201 | 0.88247 | 5975 ft | 180 kts | 156° |
| 2026-04-26 20:24 | 51.03052 | 0.89033 | 5978 ft | 180 kts | 156° |
| 2026-04-26 20:24 | 51.01901 | 0.89820 | 5983 ft | 180 kts | 156° |
| 2026-04-26 20:24 | 51.00751 | 0.90606 | 5989 ft | 180 kts | 156° |
| 2026-04-26 20:24 | 50.99602 | 0.91390 | 5990 ft | 180 kts | 156° |
| 2026-04-26 20:25 | 50.98452 | 0.92175 | 5990 ft | 180 kts | 156° |
| 2026-04-26 20:25 | 50.97691 | 0.92695 | 5996 ft | 180 kts | 156° |
| 2026-04-26 20:25 | 50.96153 | 0.93741 | 5995 ft | 180 kts | 158° |
| 2026-04-26 20:25 | 50.94939 | 0.94162 | 5998 ft | 179 kts | 173° |
| 2026-04-26 20:26 | 50.93718 | 0.94433 | 5998 ft | 180 kts | 171° |
| 2026-04-26 20:26 | 50.92480 | 0.94729 | 5998 ft | 180 kts | 171° |
| 2026-04-26 20:26 | 50.91238 | 0.95024 | 5998 ft | 181 kts | 171° |
| 2026-04-26 20:26 | 50.89994 | 0.95318 | 5998 ft | 181 kts | 171° |
| 2026-04-26 20:27 | 50.88750 | 0.95609 | 5997 ft | 181 kts | 171° |
| 2026-04-26 20:27 | 50.87502 | 0.95903 | 5996 ft | 181 kts | 171° |
| 2026-04-26 20:27 | 50.86255 | 0.96196 | 5996 ft | 181 kts | 172° |
| 2026-04-26 20:27 | 50.85005 | 0.96490 | 5996 ft | 181 kts | 172° |
| 2026-04-26 20:28 | 50.83758 | 0.96783 | 5995 ft | 181 kts | 172° |
| 2026-04-26 20:28 | 50.82511 | 0.97075 | 5994 ft | 181 kts | 172° |
| 2026-04-26 20:28 | 50.81265 | 0.97368 | 5994 ft | 181 kts | 172° |
| 2026-04-26 20:28 | 50.80020 | 0.97660 | 5992 ft | 181 kts | 172° |
| 2026-04-26 20:29 | 50.78773 | 0.97951 | 5992 ft | 181 kts | 172° |
| 2026-04-26 20:29 | 50.77526 | 0.98244 | 5992 ft | 181 kts | 172° |
| 2026-04-26 20:29 | 50.76278 | 0.98536 | 5991 ft | 181 kts | 172° |
| 2026-04-26 20:29 | 50.75028 | 0.98828 | 5989 ft | 182 kts | 172° |
| 2026-04-26 20:30 | 50.73778 | 0.99120 | 5987 ft | 182 kts | 172° |
| 2026-04-26 20:30 | 50.72527 | 0.99413 | 5994 ft | 182 kts | 172° |
| 2026-04-26 20:30 | 50.71276 | 0.99704 | 5986 ft | 182 kts | 172° |
| 2026-04-26 20:30 | 50.70023 | 0.99998 | 5988 ft | 182 kts | 172° |
| 2026-04-26 20:31 | 50.68772 | 1.00289 | 5984 ft | 182 kts | 172° |
| 2026-04-26 20:31 | 50.67537 | 1.00577 | 5980 ft | 182 kts | 172° |
| 2026-04-26 20:31 | 50.66288 | 1.00869 | 5985 ft | 181 kts | 172° |
| 2026-04-26 20:31 | 50.65036 | 1.01160 | 5984 ft | 181 kts | 172° |
| 2026-04-26 20:32 | 50.63790 | 1.01450 | 5979 ft | 181 kts | 172° |
| 2026-04-26 20:32 | 50.62542 | 1.01741 | 5979 ft | 181 kts | 172° |
| 2026-04-26 20:32 | 50.61292 | 1.02031 | 5978 ft | 181 kts | 172° |
| 2026-04-26 20:32 | 50.60046 | 1.02320 | 5975 ft | 181 kts | 172° |
| 2026-04-26 20:33 | 50.58800 | 1.02610 | 5977 ft | 181 kts | 172° |
| 2026-04-26 20:33 | 50.57555 | 1.02899 | 5972 ft | 181 kts | 172° |
| 2026-04-26 20:33 | 50.56311 | 1.03188 | 5972 ft | 181 kts | 172° |
| 2026-04-26 20:33 | 50.55062 | 1.03478 | 5971 ft | 181 kts | 172° |
| 2026-04-26 20:34 | 50.53815 | 1.03766 | 5971 ft | 181 kts | 172° |
| 2026-04-26 20:34 | 50.52582 | 1.04052 | 5971 ft | 181 kts | 172° |
| 2026-04-26 20:34 | 50.51331 | 1.04342 | 5971 ft | 181 kts | 172° |
| 2026-04-26 20:34 | 50.50083 | 1.04630 | 5971 ft | 181 kts | 172° |
| 2026-04-26 20:35 | 50.48840 | 1.04919 | 5967 ft | 181 kts | 172° |
| 2026-04-26 20:35 | 50.47593 | 1.05207 | 5966 ft | 181 kts | 172° |
| 2026-04-26 20:35 | 50.46348 | 1.05494 | 5966 ft | 181 kts | 172° |
| 2026-04-26 20:35 | 50.45105 | 1.05782 | 5966 ft | 181 kts | 172° |
| 2026-04-26 20:36 | 50.43861 | 1.06068 | 5966 ft | 181 kts | 172° |
| 2026-04-26 20:36 | 50.42617 | 1.06355 | 5966 ft | 181 kts | 172° |
| 2026-04-26 20:36 | 50.41367 | 1.06644 | 5963 ft | 181 kts | 172° |
| 2026-04-26 20:36 | 50.40136 | 1.06927 | 5963 ft | 181 kts | 172° |
| 2026-04-26 20:37 | 50.38885 | 1.07215 | 5966 ft | 181 kts | 172° |
| 2026-04-26 20:37 | 50.37638 | 1.07503 | 5966 ft | 181 kts | 172° |
| 2026-04-26 20:37 | 50.36392 | 1.07789 | 5966 ft | 181 kts | 172° |
| 2026-04-26 20:37 | 50.35145 | 1.08075 | 5966 ft | 181 kts | 172° |
| 2026-04-26 20:38 | 50.33900 | 1.08362 | 5966 ft | 181 kts | 172° |
| 2026-04-26 20:38 | 50.32653 | 1.08648 | 5966 ft | 181 kts | 172° |
| 2026-04-26 20:38 | 50.31406 | 1.08934 | 5958 ft | 181 kts | 172° |
| 2026-04-26 20:38 | 50.30156 | 1.09222 | 5958 ft | 181 kts | 172° |
| 2026-04-26 20:39 | 50.28905 | 1.09508 | 5960 ft | 181 kts | 172° |
| 2026-04-26 20:39 | 50.28080 | 1.09697 | 5960 ft | 181 kts | 172° |
| 2026-04-26 20:39 | 50.26412 | 1.10080 | 5960 ft | 181 kts | 172° |
| 2026-04-26 20:39 | 50.25183 | 1.10361 | 5963 ft | 181 kts | 172° |
| 2026-04-26 20:40 | 50.23935 | 1.10646 | 5962 ft | 181 kts | 172° |
| 2026-04-26 20:40 | 50.22687 | 1.10932 | 5953 ft | 181 kts | 172° |
| 2026-04-26 20:40 | 50.21439 | 1.11218 | 5955 ft | 181 kts | 172° |
| 2026-04-26 20:40 | 50.20189 | 1.11503 | 5956 ft | 181 kts | 172° |
| 2026-04-26 20:41 | 50.18941 | 1.11789 | 5952 ft | 181 kts | 172° |
| 2026-04-26 20:41 | 50.17689 | 1.12074 | 5954 ft | 182 kts | 172° |
| 2026-04-26 20:41 | 50.16436 | 1.12360 | 5954 ft | 182 kts | 172° |
| 2026-04-26 20:41 | 50.15179 | 1.12647 | 5951 ft | 183 kts | 172° |
| 2026-04-26 20:42 | 50.13919 | 1.12933 | 5952 ft | 183 kts | 171° |
| 2026-04-26 20:42 | 50.12657 | 1.13221 | 5952 ft | 183 kts | 172° |
| 2026-04-26 20:42 | 50.11412 | 1.13505 | 5952 ft | 183 kts | 172° |
| 2026-04-26 20:42 | 50.10153 | 1.13791 | 5952 ft | 183 kts | 172° |
| 2026-04-26 20:43 | 50.08892 | 1.14078 | 5949 ft | 183 kts | 172° |
| 2026-04-26 20:43 | 50.07635 | 1.14363 | 5950 ft | 182 kts | 172° |
| 2026-04-26 20:43 | 50.06379 | 1.14648 | 5949 ft | 182 kts | 172° |
| 2026-04-26 20:43 | 50.05123 | 1.14934 | 5953 ft | 182 kts | 172° |
| 2026-04-26 20:44 | 50.03869 | 1.15219 | 5953 ft | 182 kts | 172° |
| 2026-04-26 20:44 | 50.02616 | 1.15503 | 5952 ft | 182 kts | 172° |
| 2026-04-26 20:44 | 50.01360 | 1.15788 | 5949 ft | 182 kts | 172° |
| 2026-04-26 20:44 | 50.00105 | 1.16071 | 5954 ft | 182 kts | 172° |
| 2026-04-26 20:45 | 49.98849 | 1.16356 | 5951 ft | 183 kts | 172° |
| 2026-04-26 20:45 | 49.97591 | 1.16641 | 5952 ft | 182 kts | 172° |
| 2026-04-26 20:45 | 49.96336 | 1.16924 | 5950 ft | 182 kts | 172° |
| 2026-04-26 20:45 | 49.95078 | 1.17210 | 5950 ft | 183 kts | 172° |
| 2026-04-26 20:46 | 49.93835 | 1.17490 | 5948 ft | 182 kts | 172° |
| 2026-04-26 20:46 | 49.92579 | 1.17774 | 5949 ft | 182 kts | 172° |
| 2026-04-26 20:46 | 49.91324 | 1.18057 | 5948 ft | 182 kts | 172° |
| 2026-04-26 20:46 | 49.90072 | 1.18339 | 5949 ft | 181 kts | 172° |
| 2026-04-26 20:47 | 49.88821 | 1.18622 | 5949 ft | 182 kts | 172° |
| 2026-04-26 20:47 | 49.88416 | 1.18713 | 5949 ft | 182 kts | 172° |
| 2026-04-26 20:47 | 49.86321 | 1.19185 | 5946 ft | 181 kts | 172° |
| 2026-04-26 20:47 | 49.85072 | 1.19466 | 5946 ft | 182 kts | 172° |
| 2026-04-26 20:48 | 49.83834 | 1.19745 | 5946 ft | 182 kts | 172° |
| 2026-04-26 20:48 | 49.82580 | 1.20027 | 5945 ft | 182 kts | 172° |
| 2026-04-26 20:48 | 49.81328 | 1.20308 | 5946 ft | 182 kts | 172° |
| 2026-04-26 20:48 | 49.80074 | 1.20590 | 5946 ft | 182 kts | 172° |
| 2026-04-26 20:49 | 49.78819 | 1.20872 | 5945 ft | 182 kts | 172° |
| 2026-04-26 20:49 | 49.77564 | 1.21154 | 5940 ft | 183 kts | 172° |
| 2026-04-26 20:49 | 49.76304 | 1.21436 | 5946 ft | 183 kts | 172° |
| 2026-04-26 20:49 | 49.75045 | 1.21718 | 5943 ft | 183 kts | 172° |
| 2026-04-26 20:50 | 49.73786 | 1.22001 | 5941 ft | 183 kts | 172° |
| 2026-04-26 20:50 | 49.72532 | 1.22281 | 5940 ft | 182 kts | 172° |
| 2026-04-26 20:50 | 49.71278 | 1.22562 | 5939 ft | 182 kts | 172° |
| 2026-04-26 20:50 | 49.70027 | 1.22842 | 5938 ft | 181 kts | 172° |
| 2026-04-26 20:51 | 49.69200 | 1.23026 | 5932 ft | 181 kts | 172° |
| 2026-04-26 20:51 | 49.67949 | 1.23307 | 5931 ft | 182 kts | 172° |
| 2026-04-26 20:51 | 49.66695 | 1.23587 | 5930 ft | 182 kts | 172° |
| 2026-04-26 20:51 | 49.65438 | 1.23867 | 5929 ft | 182 kts | 172° |
| 2026-04-26 20:52 | 49.64181 | 1.24148 | 5932 ft | 182 kts | 172° |
| 2026-04-26 20:52 | 49.62924 | 1.24429 | 5931 ft | 182 kts | 172° |
| 2026-04-26 20:52 | 49.61669 | 1.24708 | 5931 ft | 182 kts | 172° |
| 2026-04-26 20:52 | 49.60418 | 1.24987 | 5938 ft | 182 kts | 172° |
| 2026-04-26 20:53 | 49.59168 | 1.25266 | 5937 ft | 182 kts | 172° |
| 2026-04-26 20:53 | 49.57916 | 1.25544 | 5931 ft | 182 kts | 172° |
| 2026-04-26 20:53 | 49.56664 | 1.25823 | 5932 ft | 182 kts | 172° |
| 2026-04-26 20:53 | 49.55424 | 1.26099 | 5925 ft | 182 kts | 172° |
| 2026-04-26 20:54 | 49.54165 | 1.26378 | 5931 ft | 183 kts | 172° |
| 2026-04-26 20:54 | 49.52906 | 1.26658 | 5928 ft | 182 kts | 172° |
| 2026-04-26 20:54 | 49.51649 | 1.26937 | 5925 ft | 182 kts | 172° |
| 2026-04-26 20:54 | 49.50396 | 1.27216 | 5925 ft | 182 kts | 172° |
| 2026-04-26 20:55 | 49.49143 | 1.27493 | 5921 ft | 182 kts | 172° |
| 2026-04-26 20:55 | 49.47890 | 1.27770 | 5924 ft | 182 kts | 172° |
| 2026-04-26 20:55 | 49.46638 | 1.28052 | 5920 ft | 182 kts | 171° |
| 2026-04-26 20:55 | 49.45428 | 1.28539 | 5919 ft | 182 kts | 164° |
| 2026-04-26 20:56 | 49.44206 | 1.29066 | 5924 ft | 183 kts | 164° |
| 2026-04-26 20:56 | 49.42981 | 1.29584 | 5923 ft | 182 kts | 165° |
| 2026-04-26 20:56 | 49.41757 | 1.30098 | 5920 ft | 182 kts | 165° |
| 2026-04-26 20:56 | 49.40537 | 1.30612 | 5920 ft | 182 kts | 165° |
| 2026-04-26 20:57 | 49.39313 | 1.31130 | 5919 ft | 183 kts | 164° |
| 2026-04-26 20:57 | 49.38086 | 1.31647 | 5922 ft | 183 kts | 164° |
| 2026-04-26 20:57 | 49.36860 | 1.32164 | 5929 ft | 183 kts | 164° |
| 2026-04-26 20:57 | 49.35633 | 1.32681 | 5924 ft | 183 kts | 165° |
| 2026-04-26 20:58 | 49.34407 | 1.33198 | 5925 ft | 183 kts | 165° |
| 2026-04-26 20:58 | 49.33179 | 1.33715 | 5926 ft | 183 kts | 165° |
| 2026-04-26 20:58 | 49.31952 | 1.34231 | 5932 ft | 183 kts | 164° |
| 2026-04-26 20:58 | 49.30727 | 1.34746 | 5921 ft | 183 kts | 165° |
| 2026-04-26 20:59 | 49.29501 | 1.35262 | 5922 ft | 182 kts | 165° |
| 2026-04-26 20:59 | 49.28275 | 1.35777 | 5920 ft | 182 kts | 164° |
| 2026-04-26 20:59 | 49.27053 | 1.36291 | 5920 ft | 182 kts | 164° |
| 2026-04-26 20:59 | 49.25831 | 1.36804 | 5920 ft | 181 kts | 165° |
| 2026-04-26 21:00 | 49.24630 | 1.37308 | 5915 ft | 181 kts | 164° |
| 2026-04-26 21:00 | 49.23416 | 1.37816 | 5918 ft | 181 kts | 165° |
| 2026-04-26 21:00 | 49.22199 | 1.38326 | 5921 ft | 181 kts | 165° |
| 2026-04-26 21:00 | 49.20985 | 1.38835 | 5911 ft | 181 kts | 165° |
| 2026-04-26 21:01 | 49.19770 | 1.39344 | 5912 ft | 181 kts | 165° |
| 2026-04-26 21:01 | 49.18556 | 1.39852 | 5920 ft | 181 kts | 165° |
| 2026-04-26 21:01 | 49.17342 | 1.40360 | 5912 ft | 181 kts | 165° |
| 2026-04-26 21:01 | 49.16132 | 1.40865 | 5914 ft | 180 kts | 165° |
| 2026-04-26 21:02 | 49.14920 | 1.41372 | 5912 ft | 180 kts | 165° |
| 2026-04-26 21:02 | 49.13707 | 1.41879 | 5909 ft | 181 kts | 165° |
| 2026-04-26 21:02 | 49.12494 | 1.42385 | 5918 ft | 181 kts | 165° |
| 2026-04-26 21:02 | 49.11279 | 1.42891 | 5914 ft | 181 kts | 165° |
| 2026-04-26 21:03 | 49.10063 | 1.43400 | 5910 ft | 181 kts | 165° |
| 2026-04-26 21:03 | 49.08859 | 1.43901 | 5913 ft | 181 kts | 164° |
| 2026-04-26 21:03 | 49.07642 | 1.44408 | 5915 ft | 182 kts | 165° |
| 2026-04-26 21:03 | 49.06423 | 1.44916 | 5904 ft | 182 kts | 164° |
| 2026-04-26 21:04 | 49.05205 | 1.45423 | 5888 ft | 182 kts | 165° |
| 2026-04-26 21:04 | 49.03962 | 1.45939 | 5764 ft | 187 kts | 165° |
| 2026-04-26 21:04 | 49.02695 | 1.46466 | 5643 ft | 190 kts | 165° |
| 2026-04-26 21:04 | 49.01417 | 1.46998 | 5519 ft | 191 kts | 165° |
| 2026-04-26 21:05 | 49.00131 | 1.47533 | 5396 ft | 192 kts | 165° |
| 2026-04-26 21:05 | 48.98840 | 1.48071 | 5273 ft | 192 kts | 164° |
| 2026-04-26 21:05 | 48.97646 | 1.48979 | 5147 ft | 192 kts | 145° |
| 2026-04-26 21:05 | 48.96562 | 1.50177 | 5024 ft | 192 kts | 143° |
| 2026-04-26 21:06 | 48.95495 | 1.51375 | 4983 ft | 188 kts | 143° |
| 2026-04-26 21:06 | 48.94452 | 1.52547 | 4981 ft | 184 kts | 143° |
| 2026-04-26 21:06 | 48.93434 | 1.53713 | 4978 ft | 182 kts | 140° |
| 2026-04-26 21:06 | 48.92520 | 1.55033 | 4975 ft | 181 kts | 136° |
| 2026-04-26 21:07 | 48.91592 | 1.56325 | 4974 ft | 180 kts | 139° |
| 2026-04-26 21:07 | 48.90637 | 1.57563 | 4973 ft | 180 kts | 140° |
| 2026-04-26 21:07 | 48.89679 | 1.58787 | 4969 ft | 180 kts | 140° |
| 2026-04-26 21:07 | 48.88735 | 1.59998 | 4969 ft | 180 kts | 140° |
| 2026-04-26 21:08 | 48.87770 | 1.61236 | 4902 ft | 183 kts | 140° |
| 2026-04-26 21:08 | 48.86799 | 1.62479 | 4826 ft | 181 kts | 139° |
| 2026-04-26 21:08 | 48.85843 | 1.63707 | 4748 ft | 179 kts | 139° |
| 2026-04-26 21:08 | 48.84897 | 1.64920 | 4668 ft | 178 kts | 139° |
| 2026-04-26 21:09 | 48.83948 | 1.66136 | 4537 ft | 179 kts | 139° |
| 2026-04-26 21:09 | 48.82992 | 1.67361 | 4406 ft | 180 kts | 139° |
| 2026-04-26 21:09 | 48.82036 | 1.68584 | 4284 ft | 180 kts | 139° |
| 2026-04-26 21:09 | 48.81078 | 1.69809 | 4156 ft | 180 kts | 139° |
| 2026-04-26 21:10 | 48.80124 | 1.71032 | 4031 ft | 180 kts | 139° |
| 2026-04-26 21:10 | 48.79167 | 1.72253 | 3906 ft | 180 kts | 139° |
| 2026-04-26 21:10 | 48.78208 | 1.73477 | 3782 ft | 180 kts | 139° |
| 2026-04-26 21:10 | 48.77250 | 1.74702 | 3627 ft | 181 kts | 138° |
| 2026-04-26 21:11 | 48.76285 | 1.75931 | 3394 ft | 179 kts | 137° |
| 2026-04-26 21:11 | 48.75349 | 1.77121 | 3138 ft | 173 kts | 137° |
| 2026-04-26 21:11 | 48.74456 | 1.78258 | 2974 ft | 165 kts | 137° |
| 2026-04-26 21:11 | 48.73616 | 1.79328 | 2964 ft | 150 kts | 137° |
| 2026-04-26 21:12 | 48.72851 | 1.80302 | 2955 ft | 137 kts | 136° |
| 2026-04-26 21:12 | 48.72144 | 1.81203 | 2957 ft | 129 kts | 136° |
| 2026-04-26 21:12 | 48.71474 | 1.82058 | 2959 ft | 123 kts | 136° |
| 2026-04-26 21:12 | 48.70832 | 1.82879 | 2952 ft | 119 kts | 135° |
| 2026-04-26 21:13 | 48.70198 | 1.83688 | 2963 ft | 120 kts | 136° |
| 2026-04-26 21:13 | 48.69704 | 1.84673 | 2962 ft | 118 kts | 105° |
| 2026-04-26 21:13 | 48.69691 | 1.85894 | 2964 ft | 118 kts | 74° |
| 2026-04-26 21:13 | 48.69968 | 1.87065 | 2967 ft | 118 kts | 72° |
| 2026-04-26 21:14 | 48.70234 | 1.88245 | 2988 ft | 119 kts | 72° |
| 2026-04-26 21:14 | 48.70503 | 1.89431 | 2982 ft | 119 kts | 72° |
| 2026-04-26 21:14 | 48.70772 | 1.90620 | 2992 ft | 119 kts | 72° |
| 2026-04-26 21:14 | 48.71043 | 1.91810 | 2968 ft | 121 kts | 72° |
| 2026-04-26 21:15 | 48.71314 | 1.93016 | 2848 ft | 117 kts | 72° |
| 2026-04-26 21:15 | 48.71566 | 1.94128 | 2710 ft | 108 kts | 72° |
| 2026-04-26 21:15 | 48.71805 | 1.95177 | 2566 ft | 103 kts | 71° |
| 2026-04-26 21:15 | 48.72032 | 1.96172 | 2433 ft | 100 kts | 71° |
| 2026-04-26 21:16 | 48.72253 | 1.97155 | 2298 ft | 96 kts | 71° |
| 2026-04-26 21:16 | 48.72467 | 1.98100 | 2163 ft | 93 kts | 71° |
| 2026-04-26 21:16 | 48.72674 | 1.99009 | 2030 ft | 90 kts | 71° |
| 2026-04-26 21:16 | 48.72874 | 1.99898 | 1895 ft | 89 kts | 70° |
| 2026-04-26 21:17 | 48.73070 | 2.00763 | 1761 ft | 80 kts | 70° |
| 2026-04-26 21:17 | 48.73252 | 2.01561 | 1637 ft | 80 kts | 70° |
| 2026-04-26 21:17 | 48.73431 | 2.02350 | 1550 ft | 78 kts | 70° |
| 2026-04-26 21:17 | 48.73604 | 2.03120 | 1471 ft | 77 kts | 70° |
| 2026-04-26 21:18 | 48.73781 | 2.03900 | 1369 ft | 79 kts | 70° |
| 2026-04-26 21:18 | 48.73963 | 2.04698 | 1260 ft | 81 kts | 69° |
| 2026-04-26 21:18 | 48.74142 | 2.05500 | 1169 ft | 80 kts | 69° |
| 2026-04-26 21:18 | 48.74321 | 2.06306 | 1095 ft | 82 kts | 68° |
| 2026-04-26 21:19 | 48.74511 | 2.07140 | 1009 ft | 85 kts | 68° |
| 2026-04-26 21:19 | 48.74703 | 2.07990 | 889 ft | 86 kts | 69° |
| 2026-04-26 21:19 | 48.74897 | 2.08863 | 728 ft | 89 kts | 68° |
| 2026-04-26 21:19 | 48.75095 | 2.09753 | 567 ft | 88 kts | 69° |
| 2026-04-26 21:20 | 48.75263 | 2.10506 | 520 ft | 52 kts | 74° |
| 2026-04-26 21:20 | 48.75344 | 2.10866 | 509 ft | 28 kts | 71° |
| 2026-04-26 21:20 | 48.75396 | 2.11092 | 502 ft | 23 kts | 72° |
| 2026-04-26 21:20 | 48.75413 | 2.11311 | 498 ft | 21 kts | 113° |
| 2026-04-26 21:21 | 48.75367 | 2.11484 | 499 ft | 18 kts | 111° |
| 2026-04-26 21:21 | 48.75275 | 2.11581 | 499 ft | 20 kts | 191° |
| 2026-04-26 21:21 | 48.75191 | 2.11403 | 499 ft | 19 kts | 251° |
| 2026-04-26 21:21 | 48.75163 | 2.11279 | 501 ft | 12 kts | 250° |
| 2026-04-26 21:22 | 48.75137 | 2.11163 | 504 ft | 9 kts | 251° |
| 2026-04-26 21:22 | 48.75133 | 2.11143 | 504 ft | 0 kts | 251° |
| 2026-04-26 21:23 | 48.75130 | 2.11132 | 505 ft | 4 kts | 250° |
| 2026-04-26 21:23 | 48.75110 | 2.11050 | 507 ft | 12 kts | 244° |
| 2026-04-26 21:24 | 48.75040 | 2.11009 | 509 ft | 15 kts | 186° |
| 2026-04-26 21:24 | 48.74937 | 2.10931 | 512 ft | 11 kts | 231° |
| 2026-04-26 21:24 | 48.74897 | 2.10853 | 514 ft | 10 kts | 234° |
| 2026-04-26 21:24 | 48.74873 | 2.10807 | 515 ft | 7 kts | 227° |
| 2026-04-26 21:25 | 48.74826 | 2.10783 | 517 ft | 4 kts | 144° |
| 2026-04-26 21:25 | 48.74801 | 2.10784 | 517 ft | 9 kts | 187° |
| 2026-04-26 21:25 | 48.74763 | 2.10751 | 518 ft | 0 kts | 240° |
| 2026-04-26 21:25 | 48.74762 | 2.10731 | 518 ft | 5 kts | 329° |
| 2026-04-26 21:26 | 48.74782 | 2.10757 | 518 ft | 0 kts | 49° |